Avery Island, LA

6:07 PM CDT on September 18, 2014 (GMT -0500)
Acadiana Regional | Change Station
CLOSE
Current Station
Airport
Location: New Iberia,
Elevation: 23 ft
Nearby Weather Stations

Elev 23 ft 30.04 °N, 91.88 °W | Updated 14 minutes ago

Rain
Rain
82 °F
Feels Like 89 °F
N
4
Wind Variable Wind from WNW

Today
High -- | Low -- °F
--% Chance of Precip.
Yesterday
High -- | Low -- °F
Precip. -- in
6:53 AM 7:09 PM
Waning Crescent, 24% visible
Pressure 29.88 in
Visibility 10.0 miles
Clouds Few 7000 ft
Scattered Clouds 8000 ft
Mostly Cloudy 12000 ft
Heat Index 89 °F
Dew Point 76 °F
Humidity 82%
Rainfall 0.00 in
Snow Depth Not available.
UV 1 out of 12
Pollen 8.30 out of 12
Air Quality Not available.
Flu Activity Not available.
METAR KARA 182253Z 30003KT 10SM -RA FEW070 SCT080 BKN120 28/24 A2988 RMK AO2 RAB46 SLP117 P0000 T02780244

More Conditions Fewer Conditions

Pressure 29.88 in
Visibility 10.0 miles
Clouds Few 7000 ft
Scattered Clouds 8000 ft
Mostly Cloudy 12000 ft
Heat Index 89 °F
Dew Point 76 °F
Humidity 82%
Rainfall 0.00 in
Snow Depth Not available.
UV 1 out of 12
Pollen 8.30 out of 12
Air Quality Not available.
Flu Activity Not available.
METAR KARA 182253Z 30003KT 10SM -RA FEW070 SCT080 BKN120 28/24 A2988 RMK AO2 RAB46 SLP117 P0000 T02780244

More Conditions Fewer Conditions

10-Day Weather Forecast

Almanac

Astronomy

Sep. 18, 2014 Rise Set
Actual Time 6:53 AM CDT 7:09 PM CDT
Civil Twilight 6:29 AM CDT 7:32 PM CDT
Nautical Twilight 6:01 AM CDT 8:00 PM CDT
Astronomical Twilight 5:33 AM CDT 8:29 PM CDT
Moon 2:02 AM CDT 3:45 PM CDT
Length of Visible Light 13h 03m
Length of Day
12h 15m
Tomorrow will be 1m 48s shorter.
Waning Crescent, 24% of the Moon is Illuminated
Today
Waning Crescent
Sep 24
New
Oct 1
First Quarter
Oct 8
Full
Oct 15
Last Quarter

Today's Extremes

State Highs State Lows

Community

WunderPhotos

Upload Photos

1,754,475 photos uploaded!

WunderBlogs® & News

Nearby

Snow Depth

Station Depth Elevation
No new snow has been reported.

Earthquake Activity

City Distance Mag. Time & Date
No recent earthquake activity has been reported nearby.
Minimum magnitude displayed is 2.5.

Coastal Water Temperatures

Place Temperature
Fresh Water Canal Locks, LA 82.9 °F
Amerada Pass, LA 84.0 °F

Nearby Weather Stations